Time;durP1;ratioP1;P1;durP2;ratioP2;P2;SDS_P1;SDS_P2;PMS_P1;PMS_P2;Temp;Humidity;BMP_temperature;BMP_pressure;BME280_temperature;BME280_humidity;BME280_pressure;Samples;Min_cycle;Max_cycle;Signal;HPM_P1;HPM_P2
2021/07/29 00:02:26;;;;;;;1.67;1.02;;;;;;;;;;4974055;28;20039;-68
2021/07/29 00:04:54;;;;;;;2.55;1.33;;;;;;;;;;4971948;28;20058;-69
2021/07/29 00:07:22;;;;;;;1.90;1.20;;;;;;;;;;4972506;28;20134;-68
2021/07/29 00:09:51;;;;;;;5.93;1.38;;;;;;;;;;4972709;28;20078;-69
2021/07/29 00:12:20;;;;;;;3.90;1.40;;;;;;;;;;4972032;28;20081;-70
2021/07/29 00:14:50;;;;;;;1.90;1.30;;;;;;;;;;4969315;28;20616;-68
2021/07/29 00:17:30;;;;;;;1.88;1.00;;;;;;;;;;4973150;28;20145;-69
2021/07/29 00:19:59;;;;;;;3.50;1.42;;;;;;;;;;4973064;28;20078;-69
2021/07/29 00:22:28;;;;;;;2.58;1.10;;;;;;;;;;4973694;28;20061;-68
2021/07/29 00:24:56;;;;;;;2.78;1.17;;;;;;;;;;4972397;28;20651;-68
2021/07/29 00:27:25;;;;;;;3.28;1.45;;;;;;;;;;4979338;28;20069;-68
2021/07/29 00:29:57;;;;;;;6.18;1.38;;;;;;;;;;4968353;28;20047;-68
2021/07/29 00:32:25;;;;;;;2.92;1.17;;;;;;;;;;4973639;28;20046;-68
2021/07/29 00:34:53;;;;;;;2.55;1.25;;;;;;;;;;4972783;28;20082;-68
2021/07/29 00:37:22;;;;;;;1.85;1.13;;;;;;;;;;4974644;28;20509;-69
2021/07/29 00:39:50;;;;;;;1.70;1.10;;;;;;;;;;4985950;28;20134;-68
2021/07/29 00:42:18;;;;;;;2.33;1.30;;;;;;;;;;4972899;28;20459;-68
2021/07/29 00:44:48;;;;;;;3.85;1.40;;;;;;;;;;4972583;28;20137;-68
2021/07/29 00:47:17;;;;;;;2.65;1.48;;;;;;;;;;4972822;28;20047;-69
2021/07/29 00:49:46;;;;;;;2.33;1.40;;;;;;;;;;4972395;28;20043;-68
2021/07/29 00:52:14;;;;;;;2.97;1.55;;;;;;;;;;4972690;28;20042;-68
2021/07/29 00:54:43;;;;;;;2.72;1.95;;;;;;;;;;4972169;28;20057;-68
2021/07/29 00:57:12;;;;;;;1.42;0.93;;;;;;;;;;4971990;28;20109;-69
2021/07/29 00:59:40;;;;;;;1.70;1.30;;;;;;;;;;4972452;28;20710;-68
2021/07/29 01:02:10;;;;;;;2.15;1.20;;;;;;;;;;4985532;23;20134;-74
2021/07/29 01:04:39;;;;;;;1.85;1.20;;;;;;;;;;5001427;28;20060;-72
2021/07/29 01:07:07;;;;;;;1.83;1.20;;;;;;;;;;5011470;28;20089;-72
2021/07/29 01:09:35;;;;;;;1.80;1.08;;;;;;;;;;5010655;28;20046;-73
2021/07/29 01:12:04;;;;;;;2.35;1.35;;;;;;;;;;5008536;28;20045;-72
2021/07/29 01:14:32;;;;;;;2.97;1.52;;;;;;;;;;5010640;28;20141;-75
2021/07/29 01:17:00;;;;;;;3.45;1.25;;;;;;;;;;5011855;28;20053;-72
2021/07/29 01:19:30;;;;;;;3.00;1.17;;;;;;;;;;5011323;28;20045;-74
2021/07/29 01:22:00;;;;;;;1.98;1.27;;;;;;;;;;5003175;28;20451;-73
2021/07/29 01:24:29;;;;;;;4.32;1.30;;;;;;;;;;5005319;28;20046;-72
2021/07/29 01:26:57;;;;;;;1.63;1.00;;;;;;;;;;5011174;28;20081;-72
2021/07/29 01:29:25;;;;;;;2.30;1.10;;;;;;;;;;5010817;28;20052;-72
2021/07/29 01:31:54;;;;;;;3.58;1.55;;;;;;;;;;5008284;28;20420;-72
2021/07/29 01:34:22;;;;;;;3.65;1.35;;;;;;;;;;5010544;28;20041;-72
2021/07/29 01:36:50;;;;;;;3.30;1.60;;;;;;;;;;5003770;28;20054;-72
2021/07/29 01:39:20;;;;;;;2.75;1.23;;;;;;;;;;5008828;28;20121;-72
2021/07/29 01:41:48;;;;;;;2.33;1.38;;;;;;;;;;5001377;28;20133;-72
2021/07/29 01:44:16;;;;;;;1.50;0.98;;;;;;;;;;5009233;28;20050;-72
2021/07/29 01:46:45;;;;;;;2.67;1.40;;;;;;;;;;5011107;28;20053;-72
2021/07/29 01:49:19;;;;;;;2.30;1.20;;;;;;;;;;5008545;28;20046;-74
2021/07/29 01:51:47;;;;;;;1.95;1.17;;;;;;;;;;5002469;28;20482;-72
2021/07/29 01:54:15;;;;;;;2.30;1.20;;;;;;;;;;5001175;28;20060;-73
2021/07/29 01:56:45;;;;;;;1.75;1.10;;;;;;;;;;5010530;28;20064;-72
2021/07/29 01:59:13;;;;;;;3.10;1.83;;;;;;;;;;5008354;28;20056;-74
2021/07/29 02:01:41;;;;;;;2.85;1.23;;;;;;;;;;4994470;28;20042;-72
2021/07/29 02:04:10;;;;;;;3.22;1.38;;;;;;;;;;5010678;28;20046;-74
2021/07/29 02:06:40;;;;;;;1.25;1.00;;;;;;;;;;4997959;28;20153;-72
2021/07/29 02:09:08;;;;;;;2.65;1.20;;;;;;;;;;4998486;28;20088;-72
2021/07/29 02:11:37;;;;;;;3.65;1.10;;;;;;;;;;5006153;28;20048;-72
2021/07/29 02:14:07;;;;;;;2.33;1.20;;;;;;;;;;5010226;28;20512;-73
2021/07/29 02:16:35;;;;;;;3.45;1.10;;;;;;;;;;5003072;28;20041;-75
2021/07/29 02:19:03;;;;;;;2.92;1.27;;;;;;;;;;4998502;28;20141;-73
2021/07/29 02:21:32;;;;;;;2.97;1.65;;;;;;;;;;5007333;28;20549;-72
2021/07/29 02:24:00;;;;;;;2.92;1.58;;;;;;;;;;5011856;28;20064;-76
2021/07/29 02:26:28;;;;;;;4.00;1.65;;;;;;;;;;5009707;28;20156;-72
2021/07/29 02:28:56;;;;;;;3.00;1.25;;;;;;;;;;5011284;28;20142;-75
2021/07/29 02:31:26;;;;;;;2.45;1.73;;;;;;;;;;5009152;28;20560;-75
2021/07/29 02:33:54;;;;;;;4.28;1.52;;;;;;;;;;5009346;28;20085;-72
2021/07/29 02:36:22;;;;;;;2.75;1.17;;;;;;;;;;4996558;28;20064;-72
2021/07/29 02:38:51;;;;;;;2.28;1.10;;;;;;;;;;4997903;28;20081;-72
2021/07/29 02:41:20;;;;;;;2.33;1.42;;;;;;;;;;4993325;28;20046;-72
2021/07/29 02:43:48;;;;;;;2.72;1.73;;;;;;;;;;4992021;28;20057;-73
2021/07/29 02:46:16;;;;;;;4.10;1.42;;;;;;;;;;5007288;28;20054;-72
2021/07/29 02:48:46;;;;;;;2.30;1.38;;;;;;;;;;5011487;28;20413;-72
2021/07/29 02:51:15;;;;;;;2.67;1.48;;;;;;;;;;5007856;28;20140;-72
2021/07/29 02:53:43;;;;;;;3.88;1.40;;;;;;;;;;5011073;28;20052;-72
2021/07/29 02:56:11;;;;;;;1.67;1.00;;;;;;;;;;4992587;28;20473;-72
2021/07/29 02:58:39;;;;;;;2.15;1.08;;;;;;;;;;5008244;28;20101;-72
2021/07/29 03:01:08;;;;;;;2.15;1.45;;;;;;;;;;5001288;28;20077;-72
2021/07/29 03:03:36;;;;;;;1.42;1.00;;;;;;;;;;5008561;28;20053;-75
2021/07/29 03:06:06;;;;;;;2.17;1.48;;;;;;;;;;4994900;28;20063;-77
2021/07/29 03:08:34;;;;;;;6.53;2.85;;;;;;;;;;4990881;28;20042;-72
2021/07/29 03:11:02;;;;;;;2.17;1.20;;;;;;;;;;5000356;28;20525;-72
2021/07/29 03:13:30;;;;;;;2.40;1.38;;;;;;;;;;5010325;28;20474;-73
2021/07/29 03:15:59;;;;;;;4.50;1.73;;;;;;;;;;5005625;28;20066;-72
2021/07/29 03:18:27;;;;;;;2.20;1.52;;;;;;;;;;5008934;28;20133;-74
2021/07/29 03:20:55;;;;;;;5.95;1.73;;;;;;;;;;5010238;28;20154;-72
2021/07/29 03:23:26;;;;;;;1.98;1.40;;;;;;;;;;5013916;28;20049;-72
2021/07/29 03:26:00;;;;;;;2.78;1.60;;;;;;;;;;4775751;28;10001182;-75
2021/07/29 03:28:28;;;;;;;2.97;1.30;;;;;;;;;;688944;28;10002092;-73
2021/07/29 03:30:56;;;;;;;1.67;1.13;;;;;;;;;;5010483;28;20482;-72
2021/07/29 03:33:25;;;;;;;2.72;1.45;;;;;;;;;;5009888;28;20046;-72
2021/07/29 03:35:53;;;;;;;2.90;1.35;;;;;;;;;;5010095;28;20046;-72
2021/07/29 03:38:21;;;;;;;3.83;1.60;;;;;;;;;;5017737;28;20413;-73
2021/07/29 03:40:51;;;;;;;2.63;1.60;;;;;;;;;;5012558;28;20112;-72
2021/07/29 03:43:19;;;;;;;5.25;1.80;;;;;;;;;;5013218;28;20125;-72
2021/07/29 03:45:47;;;;;;;3.00;1.50;;;;;;;;;;5012300;28;20060;-73
2021/07/29 03:48:18;;;;;;;5.40;1.67;;;;;;;;;;5010955;28;20049;-73
2021/07/29 03:50:47;;;;;;;2.95;1.70;;;;;;;;;;5003241;28;20073;-72
2021/07/29 03:53:15;;;;;;;2.72;1.88;;;;;;;;;;5001484;28;20074;-73
2021/07/29 03:55:44;;;;;;;7.15;2.17;;;;;;;;;;5010498;28;20148;-72
2021/07/29 03:58:14;;;;;;;3.15;1.65;;;;;;;;;;5003026;28;20482;-72
2021/07/29 04:00:42;;;;;;;4.15;1.60;;;;;;;;;;5006763;28;20504;-72
2021/07/29 04:03:10;;;;;;;3.45;1.80;;;;;;;;;;5011631;28;20092;-72
2021/07/29 04:05:39;;;;;;;3.90;1.65;;;;;;;;;;5004780;28;20054;-72
2021/07/29 04:08:07;;;;;;;3.33;1.75;;;;;;;;;;4992917;28;20061;-75
2021/07/29 04:10:36;;;;;;;2.92;1.52;;;;;;;;;;5007519;28;20084;-76
2021/07/29 04:13:04;;;;;;;3.40;1.60;;;;;;;;;;5012043;28;20050;-72
2021/07/29 04:15:34;;;;;;;2.42;1.60;;;;;;;;;;5008694;28;20110;-72
2021/07/29 04:18:02;;;;;;;3.50;1.73;;;;;;;;;;4998880;28;20100;-79
2021/07/29 04:20:30;;;;;;;5.28;1.58;;;;;;;;;;5002149;28;20051;-72
2021/07/29 04:22:59;;;;;;;2.20;1.23;;;;;;;;;;5010578;28;20157;-74
2021/07/29 04:25:27;;;;;;;5.22;1.23;;;;;;;;;;5009415;28;20100;-73
2021/07/29 04:27:55;;;;;;;2.72;1.40;;;;;;;;;;5002165;28;20153;-72
2021/07/29 04:30:24;;;;;;;3.30;1.52;;;;;;;;;;5001213;28;20129;-74
2021/07/29 04:32:53;;;;;;;1.75;1.30;;;;;;;;;;5003437;28;20161;-72
2021/07/29 04:35:21;;;;;;;2.40;1.50;;;;;;;;;;5008529;28;20566;-74
2021/07/29 04:37:50;;;;;;;2.10;1.38;;;;;;;;;;5007584;28;20169;-72
2021/07/29 04:40:18;;;;;;;2.75;1.70;;;;;;;;;;5006038;28;20515;-75
2021/07/29 04:42:47;;;;;;;2.65;1.42;;;;;;;;;;5000989;28;20530;-73
2021/07/29 04:45:15;;;;;;;2.95;1.60;;;;;;;;;;5008212;28;20045;-73
2021/07/29 04:47:43;;;;;;;7.78;1.73;;;;;;;;;;5004360;28;20077;-73
2021/07/29 04:50:13;;;;;;;3.60;1.42;;;;;;;;;;5008025;28;20054;-73
2021/07/29 04:52:41;;;;;;;2.40;1.17;;;;;;;;;;4995909;28;20089;-74
2021/07/29 04:55:10;;;;;;;1.98;1.30;;;;;;;;;;5008034;28;20542;-72
2021/07/29 04:57:38;;;;;;;2.00;1.48;;;;;;;;;;5008451;28;20156;-74
2021/07/29 05:00:07;;;;;;;2.72;1.58;;;;;;;;;;5004231;28;20131;-74
2021/07/29 05:02:35;;;;;;;3.13;1.45;;;;;;;;;;5007597;28;20066;-72
2021/07/29 05:05:04;;;;;;;2.03;1.35;;;;;;;;;;5006402;28;20454;-76
2021/07/29 05:07:34;;;;;;;2.35;1.33;;;;;;;;;;5006217;28;20046;-76
2021/07/29 05:10:02;;;;;;;2.20;1.60;;;;;;;;;;5006761;28;20144;-73
2021/07/29 05:12:31;;;;;;;6.03;1.60;;;;;;;;;;5004766;28;20510;-74
2021/07/29 05:14:59;;;;;;;2.88;1.60;;;;;;;;;;4997939;28;20042;-73
2021/07/29 05:17:27;;;;;;;2.60;1.45;;;;;;;;;;4991440;28;20764;-74
2021/07/29 05:19:56;;;;;;;2.70;1.52;;;;;;;;;;4998681;28;20050;-74
2021/07/29 05:22:24;;;;;;;6.53;1.88;;;;;;;;;;4983797;28;20042;-72
2021/07/29 05:24:58;;;;;;;2.65;1.40;;;;;;;;;;4995088;28;20048;-73
2021/07/29 05:27:26;;;;;;;4.38;1.70;;;;;;;;;;4988990;28;20078;-73
2021/07/29 05:29:55;;;;;;;2.17;1.50;;;;;;;;;;4994527;28;20058;-73
2021/07/29 05:32:24;;;;;;;2.22;1.20;;;;;;;;;;4997627;28;20129;-76
2021/07/29 05:34:52;;;;;;;2.75;1.33;;;;;;;;;;4998743;28;20060;-72
2021/07/29 05:37:20;;;;;;;2.38;1.60;;;;;;;;;;5003188;28;20056;-72
2021/07/29 05:39:48;;;;;;;1.83;1.20;;;;;;;;;;5006017;28;20153;-76
2021/07/29 05:42:23;;;;;;;3.05;1.38;;;;;;;;;;5004870;28;20140;-72
2021/07/29 05:44:52;;;;;;;2.17;1.33;;;;;;;;;;5007156;28;20133;-77
2021/07/29 05:47:21;;;;;;;2.50;1.30;;;;;;;;;;5005359;28;20489;-74
2021/07/29 05:49:49;;;;;;;4.22;1.40;;;;;;;;;;4999418;28;20053;-74
2021/07/29 05:52:17;;;;;;;3.33;1.60;;;;;;;;;;5003765;28;20049;-74
2021/07/29 05:54:46;;;;;;;4.93;1.77;;;;;;;;;;4998592;28;20108;-73
2021/07/29 05:57:14;;;;;;;3.22;1.60;;;;;;;;;;4999987;28;20589;-73
2021/07/29 05:59:44;;;;;;;3.40;1.40;;;;;;;;;;4992686;28;20235;-73
2021/07/29 06:02:12;;;;;;;4.05;1.70;;;;;;;;;;4996561;28;20057;-72
2021/07/29 06:04:40;;;;;;;3.70;1.90;;;;;;;;;;5001688;28;20062;-73
2021/07/29 06:07:09;;;;;;;3.03;1.58;;;;;;;;;;5004909;28;20054;-76
2021/07/29 06:09:37;;;;;;;5.72;1.85;;;;;;;;;;4999622;28;20038;-75
2021/07/29 06:12:06;;;;;;;3.13;1.73;;;;;;;;;;4997141;28;20459;-74
2021/07/29 06:14:34;;;;;;;3.28;1.58;;;;;;;;;;4994979;28;20050;-74
2021/07/29 06:17:04;;;;;;;3.75;1.60;;;;;;;;;;5003136;28;20050;-75
2021/07/29 06:19:33;;;;;;;4.03;1.60;;;;;;;;;;4999046;28;20073;-76
2021/07/29 06:22:01;;;;;;;3.60;1.75;;;;;;;;;;4994962;28;20133;-74
2021/07/29 06:24:30;;;;;;;7.50;1.80;;;;;;;;;;5004350;28;20058;-74
2021/07/29 06:27:02;;;;;;;4.13;1.88;;;;;;;;;;5002373;28;20046;-73
2021/07/29 06:29:30;;;;;;;3.47;1.80;;;;;;;;;;5001592;28;20140;-75
2021/07/29 06:31:58;;;;;;;3.35;1.83;;;;;;;;;;4999390;28;20054;-73
2021/07/29 06:34:28;;;;;;;3.95;1.90;;;;;;;;;;5000077;28;20132;-75
2021/07/29 06:36:57;;;;;;;3.85;2.10;;;;;;;;;;5011864;28;20073;-72
2021/07/29 06:39:25;;;;;;;2.45;1.48;;;;;;;;;;4999821;28;20424;-73
2021/07/29 06:41:54;;;;;;;5.50;1.75;;;;;;;;;;4997459;28;20132;-76
2021/07/29 06:44:22;;;;;;;3.85;2.30;;;;;;;;;;4992983;28;20521;-76
2021/07/29 06:46:50;;;;;;;6.32;2.28;;;;;;;;;;4987744;28;20090;-72
2021/07/29 06:49:19;;;;;;;3.42;2.10;;;;;;;;;;5013413;28;20049;-74
2021/07/29 06:51:48;;;;;;;3.03;1.95;;;;;;;;;;5012499;28;20125;-72
2021/07/29 06:54:17;;;;;;;4.88;2.50;;;;;;;;;;5005621;28;20042;-75
2021/07/29 06:56:45;;;;;;;4.07;2.47;;;;;;;;;;5009300;28;20092;-77
2021/07/29 06:59:13;;;;;;;3.78;2.42;;;;;;;;;;5009357;28;20053;-73
2021/07/29 07:01:42;;;;;;;3.28;2.50;;;;;;;;;;5009467;28;20052;-73
2021/07/29 07:04:10;;;;;;;5.30;2.10;;;;;;;;;;5001139;28;20566;-76
2021/07/29 07:06:39;;;;;;;4.78;2.28;;;;;;;;;;4990903;28;20057;-77
2021/07/29 07:09:09;;;;;;;6.38;2.25;;;;;;;;;;5001450;28;20096;-72
2021/07/29 07:11:37;;;;;;;5.40;2.08;;;;;;;;;;5000266;28;20142;-73
2021/07/29 07:14:06;;;;;;;5.03;2.55;;;;;;;;;;4999255;28;20557;-74
2021/07/29 07:16:35;;;;;;;3.42;2.20;;;;;;;;;;5007722;28;20107;-74
2021/07/29 07:19:05;;;;;;;4.03;2.20;;;;;;;;;;4991452;28;20112;-73
2021/07/29 07:21:34;;;;;;;6.35;2.80;;;;;;;;;;4993203;28;20050;-70
2021/07/29 07:24:03;;;;;;;4.07;2.10;;;;;;;;;;4997789;28;20045;-74
2021/07/29 07:26:33;;;;;;;3.75;2.60;;;;;;;;;;5004893;28;20109;-79
2021/07/29 07:29:03;;;;;;;3.08;2.35;;;;;;;;;;4997031;28;20050;-74
2021/07/29 07:31:31;;;;;;;5.72;2.70;;;;;;;;;;5005935;28;20415;-76
2021/07/29 07:34:00;;;;;;;3.65;2.50;;;;;;;;;;4998810;28;20312;-74
2021/07/29 07:36:29;;;;;;;5.30;2.22;;;;;;;;;;5000540;28;20421;-74
2021/07/29 07:38:57;;;;;;;5.00;2.25;;;;;;;;;;5008191;28;20050;-70
2021/07/29 07:41:25;;;;;;;4.28;2.50;;;;;;;;;;5009953;28;20090;-71
2021/07/29 07:43:55;;;;;;;3.67;2.20;;;;;;;;;;5002796;28;20125;-74
2021/07/29 07:46:24;;;;;;;3.17;2.40;;;;;;;;;;4995829;28;20056;-74
2021/07/29 07:48:52;;;;;;;4.63;2.58;;;;;;;;;;5003906;28;20108;-73
2021/07/29 07:51:21;;;;;;;5.00;2.58;;;;;;;;;;5007442;28;20790;-72
2021/07/29 07:53:50;;;;;;;5.75;2.80;;;;;;;;;;5007328;28;20054;-72
2021/07/29 07:56:19;;;;;;;4.80;2.47;;;;;;;;;;4998089;28;20410;-74
2021/07/29 07:58:48;;;;;;;8.80;2.70;;;;;;;;;;5008236;28;20046;-73
2021/07/29 08:01:19;;;;;;;4.13;2.47;;;;;;;;;;5004041;28;20375;-73
2021/07/29 08:03:48;;;;;;;5.20;2.33;;;;;;;;;;5006310;28;20628;-72
2021/07/29 08:06:17;;;;;;;6.05;2.30;;;;;;;;;;5004749;28;20053;-73
2021/07/29 08:08:46;;;;;;;3.33;2.35;;;;;;;;;;5012586;28;20081;-71
2021/07/29 08:11:14;;;;;;;3.50;2.00;;;;;;;;;;4997297;28;20754;-72
2021/07/29 08:13:43;;;;;;;3.70;1.88;;;;;;;;;;5003741;28;20537;-71
2021/07/29 08:16:12;;;;;;;9.45;2.40;;;;;;;;;;5009141;28;20142;-71
2021/07/29 08:18:42;;;;;;;5.18;2.13;;;;;;;;;;5007959;28;20048;-72
2021/07/29 08:21:12;;;;;;;3.85;2.13;;;;;;;;;;5008390;28;20092;-73
2021/07/29 08:23:41;;;;;;;4.80;2.15;;;;;;;;;;5009426;28;20438;-71
2021/07/29 08:26:11;;;;;;;3.42;2.30;;;;;;;;;;5006491;28;20145;-72
2021/07/29 08:28:41;;;;;;;4.18;2.28;;;;;;;;;;5006811;28;20151;-73
2021/07/29 08:31:10;;;;;;;4.93;2.28;;;;;;;;;;5009306;28;20089;-71
2021/07/29 08:33:39;;;;;;;3.17;1.85;;;;;;;;;;5007855;28;20050;-72
2021/07/29 08:36:14;;;;;;;2.55;1.60;;;;;;;;;;5006213;28;20046;-75
2021/07/29 08:38:42;;;;;;;5.63;1.85;;;;;;;;;;5005111;28;20081;-73
2021/07/29 08:41:11;;;;;;;5.05;2.00;;;;;;;;;;5008029;28;20061;-72
2021/07/29 08:43:40;;;;;;;2.95;1.83;;;;;;;;;;5008693;28;20057;-72
2021/07/29 08:46:09;;;;;;;3.35;1.70;;;;;;;;;;5010945;28;20046;-73
2021/07/29 08:48:42;;;;;;;4.45;2.45;;;;;;;;;;5006848;28;20441;-75
2021/07/29 08:51:11;;;;;;;5.47;2.38;;;;;;;;;;5002623;28;20452;-72
2021/07/29 08:53:40;;;;;;;2.50;1.80;;;;;;;;;;5008331;28;20084;-73
2021/07/29 08:56:13;;;;;;;3.67;1.73;;;;;;;;;;5008298;28;20081;-73
2021/07/29 08:58:41;;;;;;;4.57;1.90;;;;;;;;;;5008755;28;20061;-74
2021/07/29 09:01:12;;;;;;;4.25;2.17;;;;;;;;;;5007480;28;20076;-73
2021/07/29 09:03:41;;;;;;;3.05;2.17;;;;;;;;;;4999057;28;20069;-75
2021/07/29 09:06:11;;;;;;;3.85;2.20;;;;;;;;;;4999376;28;20462;-74
2021/07/29 09:08:45;;;;;;;3.20;2.00;;;;;;;;;;5002924;28;20045;-75
2021/07/29 09:11:37;;;;;;;7.57;2.17;;;;;;;;;;5004193;28;20064;-74
2021/07/29 09:14:07;;;;;;;2.83;1.90;;;;;;;;;;5003285;28;20050;-74
2021/07/29 09:16:38;;;;;;;2.38;1.85;;;;;;;;;;4992575;28;20065;-76
2021/07/29 09:19:07;;;;;;;2.97;2.13;;;;;;;;;;5004991;28;20166;-75
2021/07/29 09:21:35;;;;;;;7.15;2.35;;;;;;;;;;5001509;28;20056;-75
2021/07/29 09:24:06;;;;;;;2.55;2.10;;;;;;;;;;5003539;28;20052;-76
2021/07/29 09:26:56;;;;;;;4.75;2.47;;;;;;;;;;5004550;28;20050;-74
2021/07/29 09:29:25;;;;;;;4.03;2.13;;;;;;;;;;4996107;28;20073;-74
2021/07/29 09:32:09;;;;;;;3.72;2.13;;;;;;;;;;4996770;28;20046;-74
2021/07/29 09:34:44;;;;;;;3.47;2.00;;;;;;;;;;4995052;28;20054;-77
2021/07/29 09:37:12;;;;;;;;;;;;;;;;;;4999871;28;20133;-73
2021/07/29 09:39:42;;;;;;;4.35;2.78;;;;;;;;;;4997552;28;20393;-74
2021/07/29 09:42:18;;;;;;;5.28;2.10;;;;;;;;;;5007670;28;20056;-73
2021/07/29 09:44:47;;;;;;;3.65;2.45;;;;;;;;;;5007790;28;20092;-76
2021/07/29 09:47:15;;;;;;;4.28;2.22;;;;;;;;;;5004985;28;20082;-73
2021/07/29 09:49:44;;;;;;;3.95;2.60;;;;;;;;;;5002826;28;20543;-72
2021/07/29 09:52:12;;;;;;;4.47;2.28;;;;;;;;;;4999861;28;20453;-73
2021/07/29 09:54:43;;;;;;;4.18;2.47;;;;;;;;;;5002407;28;20046;-74
2021/07/29 09:57:12;;;;;;;4.38;2.40;;;;;;;;;;5007482;28;20072;-75
2021/07/29 09:59:41;;;;;;;3.38;2.45;;;;;;;;;;4999367;28;20046;-75
2021/07/29 10:02:09;;;;;;;4.05;2.55;;;;;;;;;;4988153;28;20099;-77
2021/07/29 10:04:41;;;;;;;7.30;2.58;;;;;;;;;;4996950;28;20061;-75
2021/07/29 10:07:11;;;;;;;3.85;2.28;;;;;;;;;;4999424;28;20843;-75
2021/07/29 10:09:45;;;;;;;3.45;2.40;;;;;;;;;;5001444;28;20068;-78
2021/07/29 10:12:19;;;;;;;4.03;2.40;;;;;;;;;;5007347;28;20108;-75
2021/07/29 10:14:47;;;;;;;;;;;;;;;;;;5008186;28;20057;-75
2021/07/29 10:17:16;;;;;;;3.92;2.42;;;;;;;;;;5011067;28;19964;-76
2021/07/29 10:20:03;;;;;;;2.95;2.08;;;;;;;;;;4994132;28;20061;-74
2021/07/29 10:22:31;;;;;;;3.92;2.28;;;;;;;;;;4994635;28;20443;-79
2021/07/29 10:25:00;;;;;;;2.83;2.05;;;;;;;;;;5000055;28;20084;-77
2021/07/29 10:27:29;;;;;;;4.05;2.25;;;;;;;;;;5002711;28;20704;-73
2021/07/29 10:30:25;;;;;;;4.55;2.70;;;;;;;;;;5004727;28;20100;-75
2021/07/29 10:32:57;;;;;;;3.58;2.33;;;;;;;;;;5007200;28;20559;-76
2021/07/29 10:35:39;;;;;;;5.15;2.83;;;;;;;;;;5004390;28;20140;-74
2021/07/29 10:38:08;;;;;;;3.22;2.33;;;;;;;;;;5006157;28;20077;-73
2021/07/29 10:40:37;;;;;;;4.07;2.67;;;;;;;;;;5002869;28;20081;-72
2021/07/29 10:43:23;;;;;;;4.13;2.45;;;;;;;;;;5003457;28;20160;-73
2021/07/29 10:45:53;;;;;;;4.47;1.95;;;;;;;;;;5001499;28;20050;-74
2021/07/29 10:48:40;;;;;;;3.00;2.30;;;;;;;;;;5000858;28;20479;-74
2021/07/29 10:51:14;;;;;;;4.20;2.72;;;;;;;;;;5016762;28;20049;-74
2021/07/29 10:53:43;;;;;;;3.17;2.42;;;;;;;;;;5000134;28;20053;-74
2021/07/29 10:56:12;;;;;;;5.25;2.45;;;;;;;;;;5002496;28;20054;-79
2021/07/29 10:58:41;;;;;;;2.90;2.10;;;;;;;;;;5002656;28;20055;-75
2021/07/29 11:01:11;;;;;;;3.25;2.40;;;;;;;;;;5007802;28;20050;-74
2021/07/29 11:03:45;;;;;;;4.57;2.63;;;;;;;;;;5007475;28;20058;-74
2021/07/29 11:06:24;;;;;;;3.50;2.20;;;;;;;;;;5007334;28;20641;-72
2021/07/29 11:08:53;;;;;;;3.78;2.38;;;;;;;;;;5011650;28;20100;-73
2021/07/29 11:11:22;;;;;;;4.88;2.47;;;;;;;;;;4992179;28;20081;-75
2021/07/29 11:13:52;;;;;;;3.40;2.20;;;;;;;;;;4998796;28;20482;-75
2021/07/29 11:16:22;;;;;;;4.60;2.90;;;;;;;;;;5005218;28;20123;-74
2021/07/29 11:18:59;;;;;;;4.22;2.50;;;;;;;;;;4996798;28;20047;-74
2021/07/29 11:21:30;;;;;;;4.03;2.40;;;;;;;;;;5004544;28;20054;-75
2021/07/29 11:23:58;;;;;;;3.55;2.45;;;;;;;;;;5009596;28;20054;-76
2021/07/29 11:26:27;;;;;;;4.47;2.38;;;;;;;;;;5003323;28;20057;-74
2021/07/29 11:29:09;;;;;;;4.72;2.25;;;;;;;;;;5006182;28;20046;-74
2021/07/29 11:31:38;;;;;;;4.32;2.13;;;;;;;;;;5002791;28;20129;-77
2021/07/29 11:34:07;;;;;;;5.18;2.58;;;;;;;;;;4992218;28;20046;-74
2021/07/29 11:36:38;;;;;;;3.35;2.25;;;;;;;;;;5009522;28;20045;-75
2021/07/29 11:39:07;;;;;;;2.72;2.00;;;;;;;;;;5006957;28;20504;-75
2021/07/29 11:41:51;;;;;;;3.10;2.40;;;;;;;;;;4998287;28;20050;-76
2021/07/29 11:44:20;;;;;;;5.00;2.58;;;;;;;;;;5009919;28;20050;-75
2021/07/29 11:46:55;;;;;;;3.35;2.25;;;;;;;;;;4998889;28;20046;-75
2021/07/29 11:49:25;;;;;;;4.03;2.85;;;;;;;;;;4996436;28;20112;-74
2021/07/29 11:52:08;;;;;;;4.63;2.90;;;;;;;;;;5000229;28;20402;-75
2021/07/29 11:54:37;;;;;;;3.83;2.20;;;;;;;;;;4998024;28;20050;-74
2021/07/29 11:57:06;;;;;;;3.55;2.55;;;;;;;;;;5018761;28;20061;-75
2021/07/29 11:59:36;;;;;;;2.92;2.20;;;;;;;;;;5010849;28;20534;-73
2021/07/29 12:02:05;;;;;;;3.83;2.63;;;;;;;;;;4998451;28;20581;-75
2021/07/29 12:04:35;;;;;;;5.40;2.50;;;;;;;;;;4999532;28;20556;-76
2021/07/29 12:07:09;;;;;;;2.63;2.28;;;;;;;;;;5002303;28;20053;-74
2021/07/29 12:09:42;;;;;;;3.55;2.33;;;;;;;;;;4995786;28;20715;-73
2021/07/29 12:12:11;;;;;;;2.97;2.30;;;;;;;;;;5003935;28;20053;-73
2021/07/29 12:14:44;;;;;;;3.65;2.50;;;;;;;;;;4999494;28;20085;-73
2021/07/29 12:17:20;;;;;;;3.45;2.28;;;;;;;;;;5007072;28;20088;-74
2021/07/29 12:19:58;;;;;;;4.07;2.50;;;;;;;;;;5000510;28;20058;-74
2021/07/29 12:22:28;;;;;;;3.60;2.28;;;;;;;;;;5007904;28;20061;-75
2021/07/29 12:24:59;;;;;;;3.97;2.78;;;;;;;;;;5001700;28;20050;-75
2021/07/29 12:27:28;;;;;;;3.75;2.28;;;;;;;;;;5005436;28;20485;-74
2021/07/29 12:29:57;;;;;;;3.53;2.65;;;;;;;;;;5007896;28;20794;-75
2021/07/29 12:32:27;;;;;;;3.25;2.22;;;;;;;;;;5005586;28;20042;-73
2021/07/29 12:34:56;;;;;;;3.55;2.30;;;;;;;;;;4999323;28;20061;-74
2021/07/29 12:37:33;;;;;;;2.47;2.00;;;;;;;;;;5013188;28;20046;-74
2021/07/29 12:40:04;;;;;;;2.85;2.00;;;;;;;;;;5002071;28;20042;-75
2021/07/29 12:42:33;;;;;;;4.30;2.38;;;;;;;;;;4991530;28;20473;-77
2021/07/29 12:45:05;;;;;;;4.57;2.38;;;;;;;;;;5006097;28;20054;-76
2021/07/29 12:47:34;;;;;;;5.05;2.90;;;;;;;;;;5010758;28;20111;-75
2021/07/29 12:50:02;;;;;;;5.47;2.40;;;;;;;;;;5011299;28;20041;-75
2021/07/29 12:52:31;;;;;;;3.35;2.30;;;;;;;;;;5007022;28;20050;-76
2021/07/29 12:55:06;;;;;;;3.65;2.47;;;;;;;;;;5003470;28;20101;-76
2021/07/29 12:57:50;;;;;;;3.13;2.30;;;;;;;;;;5004196;28;20839;-76
2021/07/29 13:00:18;;;;;;;3.47;2.67;;;;;;;;;;5000798;28;20057;-76
2021/07/29 13:02:47;;;;;;;3.10;2.20;;;;;;;;;;5005043;28;20116;-77
2021/07/29 13:05:16;;;;;;;7.72;2.67;;;;;;;;;;5007963;28;20420;-76
2021/07/29 13:07:44;;;;;;;3.35;2.55;;;;;;;;;;5010166;28;20049;-76
2021/07/29 13:10:14;;;;;;;2.83;2.10;;;;;;;;;;5009114;28;20097;-76
2021/07/29 13:12:42;;;;;;;3.17;2.08;;;;;;;;;;5009341;28;20042;-76
2021/07/29 13:15:13;;;;;;;3.40;2.15;;;;;;;;;;5011984;28;20060;-75
2021/07/29 13:17:41;;;;;;;5.32;2.88;;;;;;;;;;5001453;28;20047;-76
2021/07/29 13:20:10;;;;;;;3.53;2.45;;;;;;;;;;5007644;28;20108;-76
2021/07/29 13:22:39;;;;;;;3.88;2.60;;;;;;;;;;5005511;28;20094;-76
2021/07/29 13:25:08;;;;;;;3.47;2.42;;;;;;;;;;5010548;28;20054;-77
2021/07/29 13:27:38;;;;;;;3.50;2.55;;;;;;;;;;5009990;28;20053;-75
2021/07/29 13:30:06;;;;;;;4.82;2.80;;;;;;;;;;5016693;28;20079;-75
2021/07/29 13:32:36;;;;;;;4.28;2.33;;;;;;;;;;5010784;28;20092;-76
2021/07/29 13:35:05;;;;;;;3.97;2.67;;;;;;;;;;5010795;28;20042;-75
2021/07/29 13:37:33;;;;;;;3.42;2.42;;;;;;;;;;4999718;28;20402;-75
2021/07/29 13:40:02;;;;;;;2.58;2.05;;;;;;;;;;4992402;28;20073;-74
2021/07/29 13:42:31;;;;;;;4.35;2.28;;;;;;;;;;5007821;28;20092;-74
2021/07/29 13:47:44;;;;;;;4.00;2.33;;;;;;;;;;5012659;28;20077;-74
2021/07/29 13:50:12;;;;;;;4.63;2.40;;;;;;;;;;5010225;28;20060;-75
2021/07/29 13:52:41;;;;;;;3.85;2.63;;;;;;;;;;5010371;28;20092;-74
2021/07/29 13:55:09;;;;;;;3.22;2.15;;;;;;;;;;5009420;28;20549;-73
2021/07/29 13:57:38;;;;;;;3.53;2.58;;;;;;;;;;5010008;28;20565;-76
2021/07/29 14:00:09;;;;;;;3.85;2.58;;;;;;;;;;5009112;28;20073;-75
2021/07/29 14:02:37;;;;;;;5.43;2.50;;;;;;;;;;5009785;28;20052;-75
2021/07/29 14:05:08;;;;;;;4.28;2.28;;;;;;;;;;5011449;28;20077;-73
2021/07/29 14:07:37;;;;;;;5.10;2.88;;;;;;;;;;5003078;28;20133;-75
2021/07/29 14:10:06;;;;;;;4.45;2.70;;;;;;;;;;5007444;28;20422;-73
2021/07/29 14:12:35;;;;;;;5.47;2.13;;;;;;;;;;5008306;28;20501;-74
2021/07/29 14:15:04;;;;;;;3.30;2.30;;;;;;;;;;5000547;28;20149;-74
2021/07/29 14:17:38;;;;;;;4.60;2.60;;;;;;;;;;5011818;28;20465;-74
2021/07/29 14:20:12;;;;;;;3.67;2.10;;;;;;;;;;4999706;28;20558;-75
2021/07/29 14:22:57;;;;;;;3.80;2.40;;;;;;;;;;5004339;28;20061;-74
2021/07/29 14:25:28;;;;;;;3.55;2.40;;;;;;;;;;5005183;28;20481;-74
2021/07/29 14:27:57;;;;;;;3.72;2.38;;;;;;;;;;5007734;28;20615;-74
2021/07/29 14:30:26;;;;;;;3.38;2.25;;;;;;;;;;5009830;28;20097;-73
2021/07/29 14:32:56;;;;;;;3.58;2.30;;;;;;;;;;5006743;28;20057;-74
2021/07/29 14:35:26;;;;;;;3.67;2.08;;;;;;;;;;5009331;28;20053;-73
2021/07/29 14:37:54;;;;;;;3.97;2.83;;;;;;;;;;5009998;28;20081;-73
2021/07/29 14:40:22;;;;;;;2.53;1.85;;;;;;;;;;5008464;28;20529;-73
2021/07/29 14:42:51;;;;;;;4.20;2.38;;;;;;;;;;5008744;28;20458;-73
2021/07/29 14:51:08;;;;;;;6.00;2.20;;;;;;;;;;5003100;28;20125;-73
2021/07/29 14:53:36;;;;;;;3.55;2.47;;;;;;;;;;5008722;28;20108;-73
2021/07/29 14:56:16;;;;;;;6.15;2.78;;;;;;;;;;5008787;28;20050;-73
2021/07/29 16:08:31;;;;;;;3.53;2.40;;;;;;;;;;5013151;28;20496;-73
2021/07/29 16:11:01;;;;;;;4.32;2.70;;;;;;;;;;5010677;28;20081;-74
2021/07/29 16:13:31;;;;;;;3.70;2.83;;;;;;;;;;5012642;28;20124;-74
2021/07/29 16:15:59;;;;;;;3.63;2.63;;;;;;;;;;5013627;28;20054;-74
2021/07/29 16:18:28;;;;;;;3.78;2.60;;;;;;;;;;5033078;28;20069;-74